Impacts METAR Board
IDs:

KGJT - Grand Junction Rgnl, CO, US

Updated at: 1800 UTC 31 Jul 2021
Potential Impact None Slight Moderate High
Time 31/06Z 31/07Z 31/08Z 31/09Z 31/10Z 31/11Z 31/12Z 31/13Z 31/14Z 31/15Z 31/16Z 31/17Z 31/18Z
Temp67 67 66 66 66 68 72 74 76
Dewpt61 59 60 58 58 59 57 56 55
Altim30.27 30.29 30.25 30.25 30.27 30.29 30.30 30.30 30.29
VIS10 10 10 10 10 10 10 10 10
CIG-- 100 -- -- -- -- -- -- --
CoverSCTOVCSCTCLRCLRCLRCLRCLRCLR
FltCatVFRVFRVFRVFRVFRVFRVFRVFRVFR
WXVCTS-RA--------------
WDir8080220601101100100130
WSpd14 14 4 10 8 7 0 5 3
WGst-- 20 -- -- -- -- -- -- --
Raw hourly METARs
KGJT 310553Z AUTO 08014KT 10SM VCTS FEW033 FEW090 SCT110 19/16 A3027 RMK AO2 PK WND 11033/0526 LTG DSNT NW-E RAB06E43 TSE22B33E48 SLP180 P0003 60003 T01940161 10311 20189 51030
KGJT 310653Z AUTO 08014G20KT 10SM -RA BKN100 OVC120 19/15 A3029 RMK AO2 RAB43 SLP188 P0000 T01940150 403220178

KGJT 310853Z AUTO 22004KT 10SM SCT120 19/16 A3025 RMK AO2 SLP172 60001 T01890156 58005

KGJT 311053Z AUTO 06010KT 10SM CLR 19/14 A3025 RMK AO2 SLP170 T01890144

KGJT 311253Z 11008KT 10SM CLR 19/14 A3027 RMK AO2 SLP183 T01890144
KGJT 311353Z 11007KT 10SM CLR 20/15 A3029 RMK AO2 SLP186 T02000150
KGJT 311453Z 00000KT 10SM CLR 22/14 A3030 RMK AO2 SLP189 T02220139 51011

KGJT 311653Z 10005KT 10SM CLR 23/13 A3030 RMK AO2 SLP191 T02330133
KGJT 311753Z 13003KT 10SM CLR 24/13 A3029 RMK AO2 LTG DSNT SW SLP194 T02440128 10244 20183 58001



Page loaded:  18:58 UTC  |   11:58 AM Pacific  |   12:58 PM Mountain  |   01:58 PM Central  |   02:58 PM Eastern

 

ADVISORIES

FORECASTS

FORECASTS

OBSERVATIONS

USER TOOLS

ABOUT US